sensor_id;sensor_type;location;lat;lon;timestamp;pressure;altitude;pressure_sealevel;temperature;humidity
50710;BME280;37033;49.994;21.992;2023-12-20T00:02:11;98882.27;;;2.01;78.73
50710;BME280;37033;49.994;21.992;2023-12-20T00:04:42;98878.42;;;2.00;78.72
50710;BME280;37033;49.994;21.992;2023-12-20T00:07:12;98871.94;;;1.99;78.74
50710;BME280;37033;49.994;21.992;2023-12-20T00:09:43;98868.97;;;1.98;78.62
50710;BME280;37033;49.994;21.992;2023-12-20T00:12:14;98864.65;;;1.99;78.69
50710;BME280;37033;49.994;21.992;2023-12-20T00:14:45;98861.09;;;1.99;78.71
50710;BME280;37033;49.994;21.992;2023-12-20T00:17:16;98860.67;;;1.98;78.70
50710;BME280;37033;49.994;21.992;2023-12-20T00:19:47;98857.54;;;1.97;78.81
50710;BME280;37033;49.994;21.992;2023-12-20T00:22:18;98848.42;;;1.96;78.77
50710;BME280;37033;49.994;21.992;2023-12-20T00:24:49;98848.80;;;1.96;78.78
50710;BME280;37033;49.994;21.992;2023-12-20T00:27:20;98850.73;;;1.95;78.77
50710;BME280;37033;49.994;21.992;2023-12-20T00:29:50;98847.59;;;1.94;78.82
50710;BME280;37033;49.994;21.992;2023-12-20T00:32:21;98836.21;;;1.94;78.89
50710;BME280;37033;49.994;21.992;2023-12-20T00:34:52;98834.20;;;1.94;78.94
50710;BME280;37033;49.994;21.992;2023-12-20T00:37:23;98827.06;;;1.95;78.90
50710;BME280;37033;49.994;21.992;2023-12-20T00:39:54;98818.75;;;1.99;78.81
50710;BME280;37033;49.994;21.992;2023-12-20T00:42:25;98818.18;;;2.03;78.77
50710;BME280;37033;49.994;21.992;2023-12-20T00:44:56;98821.50;;;2.08;78.71
50710;BME280;37033;49.994;21.992;2023-12-20T00:47:27;98822.42;;;2.10;78.51
50710;BME280;37033;49.994;21.992;2023-12-20T00:49:58;98821.08;;;2.14;78.26
50710;BME280;37033;49.994;21.992;2023-12-20T00:52:29;98823.38;;;2.14;78.24
50710;BME280;37033;49.994;21.992;2023-12-20T00:55:00;98822.07;;;2.16;78.38
50710;BME280;37033;49.994;21.992;2023-12-20T00:57:31;98820.70;;;2.18;78.22
50710;BME280;37033;49.994;21.992;2023-12-20T01:00:02;98812.09;;;2.18;78.10
50710;BME280;37033;49.994;21.992;2023-12-20T01:02:33;98808.84;;;2.20;78.20
50710;BME280;37033;49.994;21.992;2023-12-20T01:05:04;98802.35;;;2.21;78.06
50710;BME280;37033;49.994;21.992;2023-12-20T01:07:36;98793.61;;;2.21;77.97
50710;BME280;37033;49.994;21.992;2023-12-20T01:10:08;98790.35;;;2.21;77.80
50710;BME280;37033;49.994;21.992;2023-12-20T01:12:39;98788.37;;;2.21;77.74
50710;BME280;37033;49.994;21.992;2023-12-20T01:15:11;98785.44;;;2.20;77.78
50710;BME280;37033;49.994;21.992;2023-12-20T01:17:42;98782.48;;;2.18;77.74
50710;BME280;37033;49.994;21.992;2023-12-20T01:20:13;98775.95;;;2.16;77.85
50710;BME280;37033;49.994;21.992;2023-12-20T01:22:44;98775.56;;;2.13;77.91
50710;BME280;37033;49.994;21.992;2023-12-20T01:25:15;98769.58;;;2.11;77.83
50710;BME280;37033;49.994;21.992;2023-12-20T01:27:46;98766.15;;;2.09;77.98
50710;BME280;37033;49.994;21.992;2023-12-20T01:30:17;98763.06;;;2.06;77.94
50710;BME280;37033;49.994;21.992;2023-12-20T01:32:48;98761.86;;;2.05;77.90
50710;BME280;37033;49.994;21.992;2023-12-20T01:35:19;98759.08;;;2.03;77.96
50710;BME280;37033;49.994;21.992;2023-12-20T01:37:50;98753.22;;;2.01;77.93
50710;BME280;37033;49.994;21.992;2023-12-20T01:40:21;98748.46;;;1.99;78.04
50710;BME280;37033;49.994;21.992;2023-12-20T01:43:00;98746.61;;;2.00;78.04
50710;BME280;37033;49.994;21.992;2023-12-20T01:45:31;98746.69;;;1.98;78.00
50710;BME280;37033;49.994;21.992;2023-12-20T01:48:03;98745.95;;;1.96;78.06
50710;BME280;37033;49.994;21.992;2023-12-20T01:50:37;98746.36;;;1.96;78.00
50710;BME280;37033;49.994;21.992;2023-12-20T01:53:09;98745.99;;;1.96;78.00
50710;BME280;37033;49.994;21.992;2023-12-20T01:55:41;98745.83;;;1.96;77.84
50710;BME280;37033;49.994;21.992;2023-12-20T01:58:13;98741.34;;;1.98;77.79
50710;BME280;37033;49.994;21.992;2023-12-20T02:00:44;98742.23;;;1.99;77.74
50710;BME280;37033;49.994;21.992;2023-12-20T02:03:17;98737.30;;;1.98;77.74
50710;BME280;37033;49.994;21.992;2023-12-20T02:05:49;98729.45;;;1.98;77.79
50710;BME280;37033;49.994;21.992;2023-12-20T02:08:21;98733.05;;;1.98;77.67
50710;BME280;37033;49.994;21.992;2023-12-20T02:10:51;98724.22;;;1.99;77.63
50710;BME280;37033;49.994;21.992;2023-12-20T02:13:22;98716.14;;;1.97;77.61
50710;BME280;37033;49.994;21.992;2023-12-20T02:15:54;98717.63;;;1.97;77.58
50710;BME280;37033;49.994;21.992;2023-12-20T02:18:25;98713.17;;;1.97;77.65
50710;BME280;37033;49.994;21.992;2023-12-20T02:20:55;98709.88;;;1.96;77.65
50710;BME280;37033;49.994;21.992;2023-12-20T02:23:26;98710.16;;;1.96;77.66
50710;BME280;37033;49.994;21.992;2023-12-20T02:25:57;98706.16;;;1.95;77.72
50710;BME280;37033;49.994;21.992;2023-12-20T02:28:29;98698.92;;;1.94;77.74
50710;BME280;37033;49.994;21.992;2023-12-20T02:31:00;98701.70;;;1.92;77.73
50710;BME280;37033;49.994;21.992;2023-12-20T02:33:30;98697.77;;;1.91;77.81
50710;BME280;37033;49.994;21.992;2023-12-20T02:36:01;98692.48;;;1.89;77.73
50710;BME280;37033;49.994;21.992;2023-12-20T02:38:32;98694.34;;;1.87;77.73
50710;BME280;37033;49.994;21.992;2023-12-20T02:41:04;98691.95;;;1.85;77.82
50710;BME280;37033;49.994;21.992;2023-12-20T02:43:34;98690.21;;;1.83;77.93
50710;BME280;37033;49.994;21.992;2023-12-20T02:46:05;98686.20;;;1.81;77.98
50710;BME280;37033;49.994;21.992;2023-12-20T02:48:36;98686.98;;;1.78;77.91
50710;BME280;37033;49.994;21.992;2023-12-20T02:51:07;98687.91;;;1.76;77.97
50710;BME280;37033;49.994;21.992;2023-12-20T02:53:38;98690.47;;;1.75;78.09
50710;BME280;37033;49.994;21.992;2023-12-20T02:56:09;98682.14;;;1.75;78.18
50710;BME280;37033;49.994;21.992;2023-12-20T02:58:40;98679.18;;;1.74;78.08
50710;BME280;37033;49.994;21.992;2023-12-20T03:01:11;98676.17;;;1.73;78.04
50710;BME280;37033;49.994;21.992;2023-12-20T03:03:42;98675.17;;;1.71;78.01
50710;BME280;37033;49.994;21.992;2023-12-20T03:06:13;98671.17;;;1.70;78.00
50710;BME280;37033;49.994;21.992;2023-12-20T03:08:46;98668.77;;;1.68;78.19
50710;BME280;37033;49.994;21.992;2023-12-20T03:11:16;98664.77;;;1.66;78.26
50710;BME280;37033;49.994;21.992;2023-12-20T03:13:47;98662.48;;;1.63;78.20
50710;BME280;37033;49.994;21.992;2023-12-20T03:16:18;98658.41;;;1.60;78.34
50710;BME280;37033;49.994;21.992;2023-12-20T03:18:49;98656.98;;;1.57;78.44
50710;BME280;37033;49.994;21.992;2023-12-20T03:21:20;98662.13;;;1.55;78.44
50710;BME280;37033;49.994;21.992;2023-12-20T03:23:52;98665.39;;;1.51;78.36
50710;BME280;37033;49.994;21.992;2023-12-20T03:26:24;98666.94;;;1.48;78.54
50710;BME280;37033;49.994;21.992;2023-12-20T03:28:54;98666.63;;;1.44;78.61
50710;BME280;37033;49.994;21.992;2023-12-20T03:31:25;98671.19;;;1.40;78.66
50710;BME280;37033;49.994;21.992;2023-12-20T03:33:56;98669.86;;;1.36;78.78
50710;BME280;37033;49.994;21.992;2023-12-20T03:36:27;98678.23;;;1.32;78.84
50710;BME280;37033;49.994;21.992;2023-12-20T03:38:57;98681.61;;;1.30;78.85
50710;BME280;37033;49.994;21.992;2023-12-20T03:41:28;98684.27;;;1.27;79.00
50710;BME280;37033;49.994;21.992;2023-12-20T03:43:59;98687.06;;;1.25;78.98
50710;BME280;37033;49.994;21.992;2023-12-20T03:46:30;98688.05;;;1.23;79.06
50710;BME280;37033;49.994;21.992;2023-12-20T03:49:01;98683.61;;;1.20;79.08
50710;BME280;37033;49.994;21.992;2023-12-20T03:51:31;98684.64;;;1.16;79.11
50710;BME280;37033;49.994;21.992;2023-12-20T03:54:02;98677.99;;;1.13;79.12
50710;BME280;37033;49.994;21.992;2023-12-20T03:56:33;98671.02;;;1.11;79.25
50710;BME280;37033;49.994;21.992;2023-12-20T03:59:04;98671.95;;;1.09;79.25
50710;BME280;37033;49.994;21.992;2023-12-20T04:01:35;98665.10;;;1.08;79.32
50710;BME280;37033;49.994;21.992;2023-12-20T04:04:06;98659.80;;;1.09;79.33
50710;BME280;37033;49.994;21.992;2023-12-20T04:06:37;98661.53;;;1.08;79.38
50710;BME280;37033;49.994;21.992;2023-12-20T04:09:08;98662.14;;;1.07;79.42
50710;BME280;37033;49.994;21.992;2023-12-20T04:11:39;98662.64;;;1.08;79.36
50710;BME280;37033;49.994;21.992;2023-12-20T04:14:10;98662.64;;;1.08;79.40
50710;BME280;37033;49.994;21.992;2023-12-20T04:16:41;98663.37;;;1.09;79.27
50710;BME280;37033;49.994;21.992;2023-12-20T04:19:12;98664.77;;;1.11;79.24
50710;BME280;37033;49.994;21.992;2023-12-20T04:21:43;98658.89;;;1.09;79.31
50710;BME280;37033;49.994;21.992;2023-12-20T04:24:14;98659.64;;;1.08;79.23
50710;BME280;37033;49.994;21.992;2023-12-20T04:26:45;98663.50;;;1.07;79.30
50710;BME280;37033;49.994;21.992;2023-12-20T04:29:15;98667.16;;;1.06;79.40
50710;BME280;37033;49.994;21.992;2023-12-20T04:31:46;98665.59;;;1.05;79.33
50710;BME280;37033;49.994;21.992;2023-12-20T04:34:17;98666.66;;;1.03;79.47
50710;BME280;37033;49.994;21.992;2023-12-20T04:36:47;98670.67;;;1.01;79.47
50710;BME280;37033;49.994;21.992;2023-12-20T04:39:18;98668.89;;;0.99;79.55
50710;BME280;37033;49.994;21.992;2023-12-20T04:41:49;98668.39;;;0.98;79.70
50710;BME280;37033;49.994;21.992;2023-12-20T04:44:20;98668.09;;;0.96;79.69
50710;BME280;37033;49.994;21.992;2023-12-20T04:46:51;98668.23;;;0.93;80.03
50710;BME280;37033;49.994;21.992;2023-12-20T04:49:22;98659.05;;;0.92;79.89
50710;BME280;37033;49.994;21.992;2023-12-20T04:51:53;98650.61;;;0.91;80.03
50710;BME280;37033;49.994;21.992;2023-12-20T04:54:24;98648.55;;;0.90;80.26
50710;BME280;37033;49.994;21.992;2023-12-20T04:56:55;98646.73;;;0.89;80.30
50710;BME280;37033;49.994;21.992;2023-12-20T04:59:25;98646.02;;;0.89;80.39
50710;BME280;37033;49.994;21.992;2023-12-20T05:01:56;98646.86;;;0.89;80.54
50710;BME280;37033;49.994;21.992;2023-12-20T05:04:28;98649.27;;;0.90;80.49
50710;BME280;37033;49.994;21.992;2023-12-20T05:06:59;98649.48;;;0.89;80.41
50710;BME280;37033;49.994;21.992;2023-12-20T05:09:29;98642.95;;;0.89;80.73
50710;BME280;37033;49.994;21.992;2023-12-20T05:12:00;98652.16;;;0.90;80.55
50710;BME280;37033;49.994;21.992;2023-12-20T05:14:31;98650.92;;;0.89;80.77
50710;BME280;37033;49.994;21.992;2023-12-20T05:17:02;98651.51;;;0.90;80.85
50710;BME280;37033;49.994;21.992;2023-12-20T05:19:33;98643.52;;;0.90;81.00
50710;BME280;37033;49.994;21.992;2023-12-20T05:22:05;98648.92;;;0.91;80.94
50710;BME280;37033;49.994;21.992;2023-12-20T05:24:36;98641.06;;;0.91;81.01
50710;BME280;37033;49.994;21.992;2023-12-20T05:27:07;98635.84;;;0.91;80.96
50710;BME280;37033;49.994;21.992;2023-12-20T05:29:38;98641.67;;;0.92;81.03
50710;BME280;37033;49.994;21.992;2023-12-20T05:32:09;98632.23;;;0.93;80.82
50710;BME280;37033;49.994;21.992;2023-12-20T05:34:40;98629.89;;;0.95;80.82
50710;BME280;37033;49.994;21.992;2023-12-20T05:37:11;98627.00;;;0.95;80.86
50710;BME280;37033;49.994;21.992;2023-12-20T05:39:42;98625.31;;;0.95;80.89
50710;BME280;37033;49.994;21.992;2023-12-20T05:42:13;98629.86;;;0.98;80.83
50710;BME280;37033;49.994;21.992;2023-12-20T05:44:43;98628.10;;;1.00;80.70
50710;BME280;37033;49.994;21.992;2023-12-20T05:47:14;98624.54;;;1.03;80.73
50710;BME280;37033;49.994;21.992;2023-12-20T05:49:45;98620.84;;;1.06;80.70
50710;BME280;37033;49.994;21.992;2023-12-20T05:52:16;98619.69;;;1.09;80.60
50710;BME280;37033;49.994;21.992;2023-12-20T05:54:46;98620.78;;;1.12;80.65
50710;BME280;37033;49.994;21.992;2023-12-20T05:57:17;98617.16;;;1.15;80.49
50710;BME280;37033;49.994;21.992;2023-12-20T05:59:48;98618.88;;;1.18;80.50
50710;BME280;37033;49.994;21.992;2023-12-20T06:02:19;98620.48;;;1.22;80.38
50710;BME280;37033;49.994;21.992;2023-12-20T06:04:49;98618.48;;;1.25;80.14
50710;BME280;37033;49.994;21.992;2023-12-20T06:07:20;98613.02;;;1.29;80.19
50710;BME280;37033;49.994;21.992;2023-12-20T06:09:51;98612.90;;;1.31;79.97
50710;BME280;37033;49.994;21.992;2023-12-20T06:12:22;98617.33;;;1.32;80.03
50710;BME280;37033;49.994;21.992;2023-12-20T06:14:53;98624.29;;;1.35;79.96
50710;BME280;37033;49.994;21.992;2023-12-20T06:17:24;98620.80;;;1.37;79.87
50710;BME280;37033;49.994;21.992;2023-12-20T06:19:55;98621.17;;;1.40;79.85
50710;BME280;37033;49.994;21.992;2023-12-20T06:22:25;98612.08;;;1.43;79.57
50710;BME280;37033;49.994;21.992;2023-12-20T06:24:56;98610.77;;;1.46;79.60
50710;BME280;37033;49.994;21.992;2023-12-20T06:27:27;98615.35;;;1.47;79.59
50710;BME280;37033;49.994;21.992;2023-12-20T06:29:58;98617.37;;;1.50;79.35
50710;BME280;37033;49.994;21.992;2023-12-20T06:32:28;98618.54;;;1.52;79.31
50710;BME280;37033;49.994;21.992;2023-12-20T06:35:00;98614.88;;;1.54;79.34
50710;BME280;37033;49.994;21.992;2023-12-20T06:37:30;98614.17;;;1.56;79.33
50710;BME280;37033;49.994;21.992;2023-12-20T06:40:02;98616.33;;;1.59;79.18
50710;BME280;37033;49.994;21.992;2023-12-20T06:42:33;98616.13;;;1.61;79.24
50710;BME280;37033;49.994;21.992;2023-12-20T06:45:05;98611.17;;;1.63;78.90
50710;BME280;37033;49.994;21.992;2023-12-20T06:47:36;98605.09;;;1.65;78.80
50710;BME280;37033;49.994;21.992;2023-12-20T06:50:08;98610.04;;;1.68;78.93
50710;BME280;37033;49.994;21.992;2023-12-20T06:52:39;98610.85;;;1.70;78.83
50710;BME280;37033;49.994;21.992;2023-12-20T06:55:10;98607.34;;;1.72;78.79
50710;BME280;37033;49.994;21.992;2023-12-20T06:57:41;98607.66;;;1.75;78.66
50710;BME280;37033;49.994;21.992;2023-12-20T07:00:13;98604.52;;;1.77;78.62
50710;BME280;37033;49.994;21.992;2023-12-20T07:02:45;98613.23;;;1.80;78.48
50710;BME280;37033;49.994;21.992;2023-12-20T07:05:19;98615.63;;;1.82;78.41
50710;BME280;37033;49.994;21.992;2023-12-20T07:07:49;98621.20;;;1.85;78.45
50710;BME280;37033;49.994;21.992;2023-12-20T07:10:20;98628.94;;;1.87;78.42
50710;BME280;37033;49.994;21.992;2023-12-20T07:12:51;98633.66;;;1.88;78.33
50710;BME280;37033;49.994;21.992;2023-12-20T07:15:24;98632.00;;;1.89;78.33
50710;BME280;37033;49.994;21.992;2023-12-20T07:17:56;98631.66;;;1.91;78.33
50710;BME280;37033;49.994;21.992;2023-12-20T07:20:30;98621.24;;;1.91;78.25
50710;BME280;37033;49.994;21.992;2023-12-20T07:23:01;98624.42;;;1.97;78.60
50710;BME280;37033;49.994;21.992;2023-12-20T07:25:32;98638.45;;;2.01;78.38
50710;BME280;37033;49.994;21.992;2023-12-20T07:28:03;98639.54;;;2.03;78.25
50710;BME280;37033;49.994;21.992;2023-12-20T07:30:34;98641.92;;;2.03;78.15
50710;BME280;37033;49.994;21.992;2023-12-20T07:33:05;98646.25;;;2.05;78.15
50710;BME280;37033;49.994;21.992;2023-12-20T07:35:38;98648.61;;;2.06;78.05
50710;BME280;37033;49.994;21.992;2023-12-20T07:38:08;98644.93;;;2.06;78.09
50710;BME280;37033;49.994;21.992;2023-12-20T07:40:39;98649.48;;;2.07;78.07
50710;BME280;37033;49.994;21.992;2023-12-20T07:43:10;98643.77;;;2.08;78.15
50710;BME280;37033;49.994;21.992;2023-12-20T07:45:41;98645.31;;;2.09;78.45
50710;BME280;37033;49.994;21.992;2023-12-20T07:48:12;98651.61;;;2.11;78.26
50710;BME280;37033;49.994;21.992;2023-12-20T07:50:43;98652.65;;;2.13;78.29
50710;BME280;37033;49.994;21.992;2023-12-20T07:53:14;98654.84;;;2.14;78.20
50710;BME280;37033;49.994;21.992;2023-12-20T07:55:45;98648.33;;;2.16;78.12
50710;BME280;37033;49.994;21.992;2023-12-20T07:58:15;98646.46;;;2.16;78.02
50710;BME280;37033;49.994;21.992;2023-12-20T08:00:46;98641.35;;;2.17;78.06
50710;BME280;37033;49.994;21.992;2023-12-20T08:03:17;98638.63;;;2.17;78.09
50710;BME280;37033;49.994;21.992;2023-12-20T08:05:48;98645.42;;;2.18;78.03
50710;BME280;37033;49.994;21.992;2023-12-20T08:08:19;98653.44;;;2.19;78.01
50710;BME280;37033;49.994;21.992;2023-12-20T08:10:49;98635.73;;;2.19;78.27
50710;BME280;37033;49.994;21.992;2023-12-20T08:13:20;98621.92;;;2.20;77.95
50710;BME280;37033;49.994;21.992;2023-12-20T08:15:55;98611.52;;;2.20;77.93
50710;BME280;37033;49.994;21.992;2023-12-20T08:18:26;98619.48;;;2.20;78.17
50710;BME280;37033;49.994;21.992;2023-12-20T08:20:56;98625.69;;;2.22;78.23
50710;BME280;37033;49.994;21.992;2023-12-20T08:23:27;98625.84;;;2.24;78.19
50710;BME280;37033;49.994;21.992;2023-12-20T08:25:58;98630.91;;;2.26;78.25
50710;BME280;37033;49.994;21.992;2023-12-20T08:28:29;98627.58;;;2.27;78.24
50710;BME280;37033;49.994;21.992;2023-12-20T08:31:00;98614.70;;;2.29;78.19
50710;BME280;37033;49.994;21.992;2023-12-20T08:33:31;98613.29;;;2.30;78.07
50710;BME280;37033;49.994;21.992;2023-12-20T08:36:02;98616.90;;;2.31;77.77
50710;BME280;37033;49.994;21.992;2023-12-20T08:38:52;98621.80;;;2.35;77.73
50710;BME280;37033;49.994;21.992;2023-12-20T08:41:24;98624.11;;;2.32;77.69
50710;BME280;37033;49.994;21.992;2023-12-20T08:43:55;98620.06;;;2.33;77.67
50710;BME280;37033;49.994;21.992;2023-12-20T08:46:26;98613.05;;;2.34;77.50
50710;BME280;37033;49.994;21.992;2023-12-20T08:48:56;98608.39;;;2.34;77.63
50710;BME280;37033;49.994;21.992;2023-12-20T08:51:27;98611.69;;;2.33;77.55
50710;BME280;37033;49.994;21.992;2023-12-20T08:53:58;98615.20;;;2.33;77.55
50710;BME280;37033;49.994;21.992;2023-12-20T08:56:29;98617.92;;;2.33;77.42
50710;BME280;37033;49.994;21.992;2023-12-20T08:59:00;98612.59;;;2.33;77.48
50710;BME280;37033;49.994;21.992;2023-12-20T09:01:30;98616.42;;;2.34;77.59
50710;BME280;37033;49.994;21.992;2023-12-20T09:04:01;98614.45;;;2.34;77.66
50710;BME280;37033;49.994;21.992;2023-12-20T09:06:32;98615.90;;;2.35;77.70
50710;BME280;37033;49.994;21.992;2023-12-20T09:09:02;98617.45;;;2.35;77.67
50710;BME280;37033;49.994;21.992;2023-12-20T09:11:33;98617.67;;;2.35;77.84
50710;BME280;37033;49.994;21.992;2023-12-20T09:14:04;98607.44;;;2.35;77.83
50710;BME280;37033;49.994;21.992;2023-12-20T09:16:35;98607.80;;;2.37;77.65
50710;BME280;37033;49.994;21.992;2023-12-20T09:19:06;98600.84;;;2.36;77.70
50710;BME280;37033;49.994;21.992;2023-12-20T09:21:36;98596.34;;;2.37;77.71
50710;BME280;37033;49.994;21.992;2023-12-20T09:24:08;98597.66;;;2.38;77.68
50710;BME280;37033;49.994;21.992;2023-12-20T09:26:39;98600.75;;;2.37;77.88
50710;BME280;37033;49.994;21.992;2023-12-20T09:29:11;98598.28;;;2.37;77.92
50710;BME280;37033;49.994;21.992;2023-12-20T09:31:44;98597.98;;;2.38;78.03
50710;BME280;37033;49.994;21.992;2023-12-20T09:34:16;98594.52;;;2.39;77.99
50710;BME280;37033;49.994;21.992;2023-12-20T09:36:47;98587.30;;;2.39;77.93
50710;BME280;37033;49.994;21.992;2023-12-20T09:39:19;98583.04;;;2.40;78.16
50710;BME280;37033;49.994;21.992;2023-12-20T09:41:59;98582.09;;;2.40;78.09
50710;BME280;37033;49.994;21.992;2023-12-20T09:44:32;98585.40;;;2.41;78.05
50710;BME280;37033;49.994;21.992;2023-12-20T09:47:05;98583.79;;;2.41;78.12
50710;BME280;37033;49.994;21.992;2023-12-20T09:49:38;98587.54;;;2.43;78.01
50710;BME280;37033;49.994;21.992;2023-12-20T09:52:09;98588.89;;;2.43;78.13
50710;BME280;37033;49.994;21.992;2023-12-20T09:54:41;98587.42;;;2.43;77.83
50710;BME280;37033;49.994;21.992;2023-12-20T09:57:12;98593.14;;;2.42;77.84
50710;BME280;37033;49.994;21.992;2023-12-20T09:59:43;98584.11;;;2.43;77.88
50710;BME280;37033;49.994;21.992;2023-12-20T10:02:14;98578.09;;;2.42;77.81
50710;BME280;37033;49.994;21.992;2023-12-20T10:04:49;98573.34;;;2.43;77.93
50710;BME280;37033;49.994;21.992;2023-12-20T10:07:19;98576.60;;;2.44;77.89
50710;BME280;37033;49.994;21.992;2023-12-20T10:09:52;98571.98;;;2.45;77.92
50710;BME280;37033;49.994;21.992;2023-12-20T10:12:24;98564.30;;;2.46;77.84
50710;BME280;37033;49.994;21.992;2023-12-20T10:14:55;98568.23;;;2.48;77.67
50710;BME280;37033;49.994;21.992;2023-12-20T10:17:26;98571.44;;;2.49;77.57
50710;BME280;37033;49.994;21.992;2023-12-20T10:19:58;98571.65;;;2.49;77.69
50710;BME280;37033;49.994;21.992;2023-12-20T10:22:29;98570.70;;;2.49;77.77
50710;BME280;37033;49.994;21.992;2023-12-20T10:25:00;98565.33;;;2.50;77.69
50710;BME280;37033;49.994;21.992;2023-12-20T10:27:32;98565.13;;;2.51;77.71
50710;BME280;37033;49.994;21.992;2023-12-20T10:30:04;98561.90;;;2.52;77.72
50710;BME280;37033;49.994;21.992;2023-12-20T10:32:35;98559.59;;;2.52;77.42
50710;BME280;37033;49.994;21.992;2023-12-20T10:35:08;98561.61;;;2.53;77.58
50710;BME280;37033;49.994;21.992;2023-12-20T10:37:39;98556.80;;;2.55;77.69
50710;BME280;37033;49.994;21.992;2023-12-20T10:40:13;98562.27;;;2.56;77.58
50710;BME280;37033;49.994;21.992;2023-12-20T10:42:44;98558.21;;;2.56;77.47
50710;BME280;37033;49.994;21.992;2023-12-20T10:45:15;98554.61;;;2.58;77.72
50710;BME280;37033;49.994;21.992;2023-12-20T10:47:47;98551.60;;;2.61;77.74
50710;BME280;37033;49.994;21.992;2023-12-20T10:50:20;98551.35;;;2.63;77.92
50710;BME280;37033;49.994;21.992;2023-12-20T10:52:52;98555.89;;;2.65;78.01
50710;BME280;37033;49.994;21.992;2023-12-20T10:55:25;98552.16;;;2.63;78.15
50710;BME280;37033;49.994;21.992;2023-12-20T10:58:01;98553.90;;;2.62;78.17
50710;BME280;37033;49.994;21.992;2023-12-20T11:00:33;98551.75;;;2.61;78.37
50710;BME280;37033;49.994;21.992;2023-12-20T11:03:10;98549.78;;;2.61;78.63
50710;BME280;37033;49.994;21.992;2023-12-20T11:05:47;98548.79;;;2.59;78.92
50710;BME280;37033;49.994;21.992;2023-12-20T11:08:28;98555.73;;;2.58;78.89
50710;BME280;37033;49.994;21.992;2023-12-20T11:11:06;98548.35;;;2.55;79.15
50710;BME280;37033;49.994;21.992;2023-12-20T11:13:43;98543.78;;;2.54;79.27
50710;BME280;37033;49.994;21.992;2023-12-20T11:16:18;98539.44;;;2.51;79.57
50710;BME280;37033;49.994;21.992;2023-12-20T11:18:51;98530.29;;;2.49;79.42
50710;BME280;37033;49.994;21.992;2023-12-20T11:21:23;98522.66;;;2.49;79.61
50710;BME280;37033;49.994;21.992;2023-12-20T11:23:55;98527.04;;;2.47;79.62
50710;BME280;37033;49.994;21.992;2023-12-20T11:26:28;98528.36;;;2.45;79.64
50710;BME280;37033;49.994;21.992;2023-12-20T11:29:32;98524.41;;;2.42;79.72
50710;BME280;37033;49.994;21.992;2023-12-20T11:32:04;98521.35;;;2.40;79.91
50710;BME280;37033;49.994;21.992;2023-12-20T11:34:57;98518.23;;;2.39;80.10
50710;BME280;37033;49.994;21.992;2023-12-20T11:37:35;98519.75;;;2.39;80.18
50710;BME280;37033;49.994;21.992;2023-12-20T11:40:11;98515.30;;;2.37;80.57
50710;BME280;37033;49.994;21.992;2023-12-20T11:42:45;98509.73;;;2.36;80.67
50710;BME280;37033;49.994;21.992;2023-12-20T11:45:17;98509.52;;;2.35;80.71
50710;BME280;37033;49.994;21.992;2023-12-20T11:47:50;98510.11;;;2.33;81.05
50710;BME280;37033;49.994;21.992;2023-12-20T11:50:22;98509.16;;;2.31;81.17
50710;BME280;37033;49.994;21.992;2023-12-20T11:52:54;98503.55;;;2.30;81.07
50710;BME280;37033;49.994;21.992;2023-12-20T11:55:25;98503.68;;;2.29;81.56
50710;BME280;37033;49.994;21.992;2023-12-20T11:57:57;98510.08;;;2.28;81.67
50710;BME280;37033;49.994;21.992;2023-12-20T12:00:28;98501.86;;;2.28;81.68
50710;BME280;37033;49.994;21.992;2023-12-20T12:03:00;98498.90;;;2.26;81.83
50710;BME280;37033;49.994;21.992;2023-12-20T12:05:33;98502.59;;;2.24;82.28
50710;BME280;37033;49.994;21.992;2023-12-20T12:08:06;98500.52;;;2.21;82.36
50710;BME280;37033;49.994;21.992;2023-12-20T12:10:37;98498.89;;;2.17;82.49
50710;BME280;37033;49.994;21.992;2023-12-20T12:13:08;98497.14;;;2.14;82.76
50710;BME280;37033;49.994;21.992;2023-12-20T12:15:39;98496.45;;;2.10;83.08
50710;BME280;37033;49.994;21.992;2023-12-20T12:18:14;98501.70;;;2.08;83.29
50710;BME280;37033;49.994;21.992;2023-12-20T12:20:45;98499.76;;;2.07;83.48
50710;BME280;37033;49.994;21.992;2023-12-20T12:23:23;98498.41;;;2.05;83.41
50710;BME280;37033;49.994;21.992;2023-12-20T12:25:56;98497.08;;;2.04;83.53
50710;BME280;37033;49.994;21.992;2023-12-20T12:28:28;98495.27;;;2.03;83.58
50710;BME280;37033;49.994;21.992;2023-12-20T12:31:01;98493.34;;;2.02;83.84
50710;BME280;37033;49.994;21.992;2023-12-20T12:33:32;98494.07;;;2.00;84.28
50710;BME280;37033;49.994;21.992;2023-12-20T12:36:03;98493.95;;;2.00;84.32
50710;BME280;37033;49.994;21.992;2023-12-20T12:38:36;98492.23;;;1.99;84.29
50710;BME280;37033;49.994;21.992;2023-12-20T12:41:07;98490.33;;;1.98;84.30
50710;BME280;37033;49.994;21.992;2023-12-20T12:43:39;98483.07;;;1.98;84.72
50710;BME280;37033;49.994;21.992;2023-12-20T12:46:10;98488.11;;;1.96;84.73
50710;BME280;37033;49.994;21.992;2023-12-20T12:48:42;98492.31;;;1.96;84.88
50710;BME280;37033;49.994;21.992;2023-12-20T12:51:12;98487.85;;;1.94;84.97
50710;BME280;37033;49.994;21.992;2023-12-20T12:53:43;98487.78;;;1.92;85.30
50710;BME280;37033;49.994;21.992;2023-12-20T12:56:15;98487.16;;;1.92;85.38
50710;BME280;37033;49.994;21.992;2023-12-20T12:58:46;98495.52;;;1.90;85.63
50710;BME280;37033;49.994;21.992;2023-12-20T13:01:17;98492.10;;;1.89;85.88
50710;BME280;37033;49.994;21.992;2023-12-20T13:03:47;98492.02;;;1.87;86.18
50710;BME280;37033;49.994;21.992;2023-12-20T13:06:18;98496.98;;;1.86;86.28
50710;BME280;37033;49.994;21.992;2023-12-20T13:08:49;98492.98;;;1.86;86.62
50710;BME280;37033;49.994;21.992;2023-12-20T13:11:20;98494.37;;;1.82;86.68
50710;BME280;37033;49.994;21.992;2023-12-20T13:13:50;98494.34;;;1.82;86.90
50710;BME280;37033;49.994;21.992;2023-12-20T13:16:21;98496.33;;;1.79;87.01
50710;BME280;37033;49.994;21.992;2023-12-20T13:18:52;98494.54;;;1.79;87.18
50710;BME280;37033;49.994;21.992;2023-12-20T13:21:22;98499.78;;;1.77;87.41
50710;BME280;37033;49.994;21.992;2023-12-20T13:23:53;98495.53;;;1.76;87.58